createdAt,value
2023-01-08T00:01:30.125Z,610.00
2023-01-08T00:06:30.417Z,603.00
2023-01-08T00:11:30.678Z,600.00
2023-01-08T00:16:28.021Z,603.00
2023-01-08T00:21:27.153Z,616.00
2023-01-08T00:26:26.470Z,598.00
2023-01-08T00:31:26.766Z,606.00
2023-01-08T00:36:25.008Z,599.00
2023-01-08T00:41:25.211Z,595.00
2023-01-08T00:46:23.475Z,606.00
2023-01-08T00:51:22.711Z,583.00
2023-01-08T00:56:22.906Z,616.00
2023-01-08T01:01:21.158Z,606.00
2023-01-08T01:06:21.392Z,594.00
2023-01-08T01:11:21.560Z,618.00
2023-01-08T01:16:18.825Z,608.00
2023-01-08T01:21:18.006Z,606.00
2023-01-08T01:26:17.169Z,613.00
2023-01-08T01:31:17.432Z,620.00
2023-01-08T01:36:15.492Z,598.00
2023-01-08T01:41:14.690Z,615.00
2023-01-08T01:46:14.917Z,614.00
2023-01-08T01:51:13.103Z,603.00
2023-01-08T01:56:12.281Z,620.00
2023-01-08T02:01:11.565Z,618.00
2023-01-08T02:06:11.817Z,608.00
2023-01-08T02:11:08.985Z,617.00
2023-01-08T02:16:09.180Z,588.00
2023-01-08T02:21:08.382Z,597.00
2023-01-08T02:26:07.577Z,603.00
2023-01-08T02:31:07.853Z,616.00
2023-01-08T02:36:05.448Z,614.00
2023-01-08T02:41:06.340Z,604.00
2023-01-08T02:46:04.737Z,614.00
2023-01-08T02:51:03.717Z,612.00
2023-01-08T02:56:02.891Z,607.00
2023-01-08T03:01:02.128Z,614.00
2023-01-08T03:06:02.399Z,603.00
2023-01-08T03:11:02.589Z,589.00
2023-01-08T03:16:00.749Z,608.00
2023-01-08T03:21:02.897Z,616.00
2023-01-08T03:25:59.240Z,611.00
2023-01-08T03:30:57.482Z,604.00
2023-01-08T03:35:57.642Z,615.00
2023-01-08T03:40:57.857Z,595.00
2023-01-08T03:45:56.057Z,599.00
2023-01-08T03:50:54.252Z,595.00
2023-01-08T03:55:53.438Z,595.00
2023-01-08T04:00:53.595Z,597.00
2023-01-08T04:05:51.754Z,579.00
2023-01-08T04:10:51.946Z,597.00
2023-01-08T04:15:51.163Z,609.00
2023-01-08T04:20:49.360Z,593.00
2023-01-08T04:25:49.545Z,593.00
2023-01-08T04:30:48.786Z,609.00
2023-01-08T04:35:48.022Z,597.00
2023-01-08T04:40:47.209Z,601.00
2023-01-08T04:45:45.355Z,577.00
2023-01-08T04:50:46.537Z,617.00
2023-01-08T04:55:45.699Z,579.00
2023-01-08T05:00:42.874Z,590.00
2023-01-08T05:05:42.053Z,602.00
2023-01-08T05:10:41.250Z,614.00
2023-01-08T05:15:41.554Z,586.00
2023-01-08T05:20:39.745Z,581.00
2023-01-08T05:25:39.958Z,613.00
2023-01-08T05:30:38.137Z,595.00
2023-01-08T05:35:37.315Z,568.00
2023-01-08T05:40:36.496Z,600.00
2023-01-08T05:45:36.687Z,609.00
2023-01-08T05:50:34.867Z,587.00
2023-01-08T05:55:35.028Z,596.00
2023-01-08T06:00:33.195Z,573.00
2023-01-08T06:05:32.354Z,600.00
2023-01-08T06:10:31.514Z,595.00
2023-01-08T06:15:30.772Z,581.00
2023-01-08T06:20:29.960Z,623.00
2023-01-08T06:25:30.143Z,606.00
2023-01-08T06:30:30.336Z,600.00
2023-01-08T06:35:27.476Z,583.00
2023-01-08T06:40:27.646Z,591.00
2023-01-08T06:45:25.800Z,592.00
2023-01-08T06:50:25.963Z,604.00
2023-01-08T06:55:25.139Z,628.00
2023-01-08T07:00:23.355Z,594.00
2023-01-08T07:05:22.587Z,597.00
2023-01-08T07:10:23.834Z,606.00
2023-01-08T07:15:21.001Z,600.00
2023-01-08T07:20:21.179Z,601.00
2023-01-08T07:25:20.379Z,612.00
2023-01-08T07:30:29.344Z,619.00
2023-01-08T07:35:17.819Z,591.00
2023-01-08T07:40:17.003Z,591.00
2023-01-08T07:45:20.327Z,600.00
2023-01-08T07:50:15.482Z,597.00
2023-01-08T07:55:14.685Z,597.00
2023-01-08T08:00:14.896Z,576.00
2023-01-08T08:05:14.078Z,593.00
2023-01-08T08:10:12.223Z,595.00
2023-01-08T08:15:11.402Z,602.00
2023-01-08T08:20:10.564Z,605.00
2023-01-08T08:25:10.751Z,594.00
2023-01-08T08:30:09.931Z,583.00
2023-01-08T08:35:08.097Z,622.00
2023-01-08T08:40:07.294Z,578.00
2023-01-08T08:45:07.537Z,614.00
2023-01-08T08:50:05.694Z,572.00
2023-01-08T08:55:04.891Z,607.00
2023-01-08T09:00:04.100Z,599.00
2023-01-08T09:05:04.392Z,578.00
2023-01-08T09:10:03.654Z,612.00
2023-01-08T09:15:01.835Z,586.00
2023-01-08T09:20:01.048Z,560.00
2023-01-08T09:25:00.230Z,603.00
2023-01-08T09:30:00.439Z,564.00
2023-01-08T09:34:59.593Z,573.00
2023-01-08T09:40:02.475Z,592.00
2023-01-08T09:44:58.044Z,579.00
2023-01-08T09:49:57.270Z,578.00
2023-01-08T09:54:54.432Z,573.00
2023-01-08T09:59:54.624Z,562.00
2023-01-08T10:04:54.807Z,573.00
2023-01-08T10:09:52.977Z,544.00
2023-01-08T10:14:54.351Z,600.00
2023-01-08T10:19:53.460Z,570.00
2023-01-08T10:24:50.601Z,578.00
2023-01-08T10:29:50.780Z,598.00
2023-01-08T10:34:48.944Z,573.00
2023-01-08T10:39:49.124Z,584.00
2023-01-08T10:44:48.296Z,573.00
2023-01-08T10:49:46.459Z,581.00
2023-01-08T10:54:47.650Z,566.00
2023-01-08T10:59:44.767Z,582.00
2023-01-08T11:04:44.944Z,584.00
2023-01-08T11:09:45.113Z,578.00
2023-01-08T11:14:44.268Z,581.00
2023-01-08T11:19:44.440Z,567.00
2023-01-08T11:24:40.625Z,563.00
2023-01-08T11:29:38.853Z,597.00
2023-01-08T11:34:38.090Z,586.00
2023-01-08T11:39:38.217Z,590.00
2023-01-08T11:44:37.564Z,612.00
2023-01-08T11:49:36.731Z,549.00
2023-01-08T11:54:36.870Z,616.00
2023-01-08T11:59:36.190Z,567.00
2023-01-08T12:04:36.360Z,616.00
2023-01-08T12:09:33.816Z,634.00
2023-01-08T12:14:32.769Z,624.00
2023-01-08T12:19:31.923Z,640.00
2023-01-08T12:24:33.063Z,603.00
2023-01-08T12:29:30.209Z,603.00
2023-01-08T12:34:29.366Z,589.00
2023-01-08T12:39:29.535Z,625.00
2023-01-08T12:44:27.686Z,618.00
2023-01-08T12:49:26.820Z,603.00
2023-01-08T12:54:27.119Z,612.00
2023-01-08T12:59:25.437Z,640.00
2023-01-08T13:04:25.728Z,626.00
2023-01-08T13:09:24.999Z,607.00
2023-01-08T13:14:26.777Z,611.00
2023-01-08T13:19:22.495Z,616.00
2023-01-08T13:24:20.639Z,621.00
2023-01-08T13:29:21.911Z,603.00
2023-01-08T13:34:22.174Z,601.00
2023-01-08T13:39:20.487Z,589.00
2023-01-08T13:44:19.640Z,604.00
2023-01-08T13:49:17.980Z,587.00
2023-01-08T13:54:17.125Z,609.00
2023-01-08T13:59:17.358Z,570.00
2023-01-08T14:04:15.531Z,596.00
2023-01-08T14:09:15.709Z,570.00
2023-01-08T14:14:14.883Z,585.00
2023-01-08T14:19:13.089Z,590.00
2023-01-08T14:24:13.271Z,583.00
2023-01-08T14:29:11.435Z,597.00
2023-01-08T14:34:10.659Z,585.00
2023-01-08T14:39:10.864Z,586.00
2023-01-08T14:44:09.020Z,608.00
2023-01-08T14:49:08.218Z,593.00
2023-01-08T14:54:08.436Z,586.00
2023-01-08T14:59:06.626Z,583.00
2023-01-08T15:04:06.859Z,586.00
2023-01-08T15:09:06.049Z,610.00
2023-01-08T15:14:04.229Z,581.00
2023-01-08T15:19:03.435Z,590.00
2023-01-08T15:24:03.601Z,578.00
2023-01-08T15:29:01.788Z,573.00
2023-01-08T15:34:01.961Z,589.00
2023-01-08T15:39:00.147Z,574.00
2023-01-08T15:43:59.337Z,587.00
2023-01-08T15:48:58.624Z,573.00
2023-01-08T15:53:56.830Z,561.00
2023-01-08T15:58:57.067Z,571.00
2023-01-08T16:03:57.354Z,563.00
2023-01-08T16:08:55.590Z,581.00
2023-01-08T16:13:54.913Z,571.00
2023-01-08T16:18:52.997Z,585.00
2023-01-08T16:23:53.392Z,579.00
2023-01-08T16:28:53.440Z,582.00
2023-01-08T16:33:52.394Z,593.00
2023-01-08T16:38:50.849Z,579.00
2023-01-08T16:43:51.071Z,632.00
2023-01-08T16:48:49.292Z,580.00
2023-01-08T16:53:49.514Z,606.00
2023-01-08T16:58:48.914Z,599.00
2023-01-08T17:03:47.285Z,590.00
2023-01-08T17:08:46.428Z,637.00
2023-01-08T17:13:45.726Z,582.00
2023-01-08T17:18:44.793Z,626.00
2023-01-08T17:23:45.326Z,630.00
2023-01-08T17:28:43.250Z,644.00
2023-01-08T17:33:42.445Z,642.00
2023-01-08T17:38:41.671Z,625.00
2023-01-08T17:43:45.624Z,608.00
2023-01-08T17:48:41.112Z,630.00
2023-01-08T17:53:40.422Z,628.00
2023-01-08T17:58:39.844Z,625.00
2023-01-08T18:03:37.030Z,624.00
2023-01-08T18:08:37.226Z,616.00
2023-01-08T18:13:36.255Z,611.00
2023-01-08T18:18:37.752Z,618.00
2023-01-08T18:23:34.628Z,623.00
2023-01-08T18:28:33.813Z,629.00
2023-01-08T18:33:33.200Z,629.00
2023-01-08T18:38:35.813Z,634.00
2023-01-08T18:43:30.408Z,673.00
2023-01-08T18:48:30.719Z,651.00
2023-01-08T18:53:31.443Z,659.00
2023-01-08T18:58:31.570Z,654.00
2023-01-08T19:03:28.615Z,641.00
2023-01-08T19:08:27.666Z,694.00
2023-01-08T19:13:26.921Z,605.00
2023-01-08T19:18:27.250Z,640.00
2023-01-08T19:23:26.302Z,630.00
2023-01-08T19:28:25.619Z,600.00
2023-01-08T19:33:23.857Z,618.00
2023-01-08T19:38:24.324Z,614.00
2023-01-08T19:43:24.675Z,616.00
2023-01-08T19:48:23.773Z,626.00
2023-01-08T19:53:22.089Z,648.00
2023-01-08T19:58:21.146Z,654.00
2023-01-08T20:03:19.458Z,656.00
2023-01-08T20:08:18.852Z,634.00
2023-01-08T20:13:18.822Z,648.00
2023-01-08T20:18:18.175Z,636.00
2023-01-08T20:23:15.272Z,619.00
2023-01-08T20:28:17.842Z,614.00
2023-01-08T20:33:17.746Z,619.00
2023-01-08T20:38:15.136Z,631.00
2023-01-08T20:43:13.235Z,626.00
2023-01-08T20:48:12.728Z,640.00
2023-01-08T20:53:11.646Z,629.00
2023-01-08T20:58:10.869Z,637.00
2023-01-08T21:03:10.039Z,625.00
2023-01-08T21:08:10.223Z,663.00
2023-01-08T21:13:08.603Z,713.00
2023-01-08T21:18:08.825Z,694.00
2023-01-08T21:23:08.840Z,729.00
2023-01-08T21:28:06.037Z,711.00
2023-01-08T21:33:05.303Z,715.00
2023-01-08T21:38:04.532Z,708.00
2023-01-08T21:43:03.679Z,724.00
2023-01-08T21:48:02.894Z,753.00
2023-01-08T21:53:02.088Z,737.00
2023-01-08T21:58:01.311Z,720.00
2023-01-08T22:03:00.516Z,550.00
2023-01-08T22:07:59.727Z,744.00
2023-01-08T22:12:58.969Z,699.00
2023-01-08T22:17:58.146Z,688.00
2023-01-08T22:22:58.305Z,712.00
2023-01-08T22:27:58.519Z,697.00
2023-01-08T22:32:55.675Z,693.00
2023-01-08T22:37:55.845Z,678.00
2023-01-08T22:42:55.031Z,684.00
2023-01-08T22:47:54.193Z,673.00
2023-01-08T22:52:52.369Z,666.00
2023-01-08T22:57:51.532Z,656.00
2023-01-08T23:02:50.770Z,654.00
2023-01-08T23:07:49.957Z,648.00
2023-01-08T23:12:49.137Z,644.00
2023-01-08T23:17:52.467Z,642.00
2023-01-08T23:22:49.617Z,635.00
2023-01-08T23:27:49.889Z,638.00
2023-01-08T23:32:47.159Z,651.00
2023-01-08T23:37:45.439Z,633.00
2023-01-08T23:42:47.759Z,609.00
2023-01-08T23:47:43.034Z,612.00
2023-01-08T23:52:43.323Z,612.00
2023-01-08T23:57:42.621Z,620.00
